createdAt,value
2023-03-08T00:01:52.380Z,1.75
2023-03-08T00:03:56.878Z,2.00
2023-03-08T00:05:58.399Z,1.88
2023-03-08T00:07:59.934Z,1.75
2023-03-08T00:10:01.436Z,1.73
2023-03-08T00:12:03.002Z,2.72
2023-03-08T00:14:04.522Z,1.73
2023-03-08T00:16:08.560Z,2.20
2023-03-08T00:18:10.061Z,2.30
2023-03-08T00:20:13.104Z,1.90
2023-03-08T00:22:14.571Z,1.67
2023-03-08T00:24:16.829Z,2.42
2023-03-08T00:26:18.310Z,2.10
2023-03-08T00:28:19.804Z,1.85
2023-03-08T00:30:21.507Z,2.10
2023-03-08T00:32:25.634Z,2.13
2023-03-08T00:34:27.124Z,2.45
2023-03-08T00:36:29.237Z,2.20
2023-03-08T00:38:32.748Z,2.20
2023-03-08T00:40:34.201Z,2.30
2023-03-08T00:42:35.658Z,2.05
2023-03-08T00:44:37.136Z,2.05
2023-03-08T00:46:38.639Z,3.00
2023-03-08T00:48:40.797Z,1.98
2023-03-08T00:50:42.514Z,2.33
2023-03-08T00:52:44.024Z,1.75
2023-03-08T00:54:45.506Z,2.25
2023-03-08T00:56:46.976Z,2.67
2023-03-08T00:58:48.445Z,2.65
2023-03-08T01:00:50.400Z,2.15
2023-03-08T01:02:51.922Z,2.45
2023-03-08T01:04:53.493Z,2.10
2023-03-08T01:06:54.951Z,1.92
2023-03-08T01:08:56.427Z,1.83
2023-03-08T01:10:59.718Z,2.08
2023-03-08T01:13:01.340Z,2.15
2023-03-08T01:15:04.522Z,1.83
2023-03-08T01:17:06.023Z,1.90
2023-03-08T01:19:07.572Z,1.85
2023-03-08T01:21:10.564Z,1.70
2023-03-08T01:23:12.061Z,2.00
2023-03-08T01:25:13.552Z,1.83
2023-03-08T01:27:16.208Z,1.98
2023-03-08T01:29:17.697Z,1.77
2023-03-08T01:31:22.042Z,1.70
2023-03-08T01:33:25.089Z,1.80
2023-03-08T01:35:26.572Z,1.77
2023-03-08T01:37:28.023Z,1.90
2023-03-08T01:39:29.533Z,2.38
2023-03-08T01:41:31.858Z,2.05
2023-03-08T01:43:36.302Z,2.00
2023-03-08T01:46:07.263Z,1.95
2023-03-08T01:48:08.844Z,1.90
2023-03-08T01:50:13.095Z,2.10
2023-03-08T01:52:19.313Z,2.25
2023-03-08T01:54:31.389Z,2.05
2023-03-08T01:56:34.433Z,1.85
2023-03-08T01:58:36.172Z,2.22
2023-03-08T02:00:38.843Z,2.10
2023-03-08T02:02:43.717Z,2.33
2023-03-08T02:04:45.451Z,2.30
2023-03-08T02:06:46.927Z,2.28
2023-03-08T02:08:48.575Z,2.60
2023-03-08T02:10:50.694Z,2.50
2023-03-08T02:12:52.240Z,2.58
2023-03-08T02:14:55.107Z,3.10
2023-03-08T02:16:56.796Z,3.30
2023-03-08T02:19:04.872Z,3.13
2023-03-08T02:21:06.325Z,3.72
2023-03-08T02:23:12.252Z,3.90
2023-03-08T02:25:18.849Z,4.20
2023-03-08T02:27:27.026Z,4.55
2023-03-08T02:29:28.546Z,4.72
2023-03-08T02:31:30.024Z,5.07
2023-03-08T02:33:32.386Z,5.47
2023-03-08T02:35:35.868Z,5.38
2023-03-08T02:37:37.345Z,5.50
2023-03-08T02:39:38.806Z,5.22
2023-03-08T02:41:40.737Z,5.45
2023-03-08T02:43:42.457Z,5.60
2023-03-08T02:45:44.502Z,5.53
2023-03-08T02:47:45.954Z,5.43
2023-03-08T02:49:47.388Z,6.50
2023-03-08T02:51:48.843Z,6.00
2023-03-08T02:53:50.338Z,7.05
2023-03-08T02:55:51.847Z,6.60
2023-03-08T02:57:53.331Z,7.38
2023-03-08T02:59:54.820Z,7.65
2023-03-08T03:01:57.321Z,6.80
2023-03-08T03:03:58.801Z,6.97
2023-03-08T03:06:00.329Z,6.80
2023-03-08T03:08:01.865Z,7.03
2023-03-08T03:10:04.761Z,9.15
2023-03-08T03:12:06.534Z,7.22
2023-03-08T03:14:08.255Z,9.65
2023-03-08T03:16:12.287Z,7.90
2023-03-08T03:18:13.886Z,6.95
2023-03-08T03:20:15.809Z,7.35
2023-03-08T03:22:17.272Z,8.25
2023-03-08T03:24:18.759Z,7.40
2023-03-08T03:26:22.324Z,8.60
2023-03-08T03:28:23.799Z,7.68
2023-03-08T03:30:25.244Z,8.15
2023-03-08T03:32:27.076Z,8.32
2023-03-08T03:34:29.796Z,8.07
2023-03-08T03:36:31.345Z,8.65
2023-03-08T03:38:32.816Z,8.80
2023-03-08T03:40:34.270Z,8.15
2023-03-08T03:42:35.714Z,9.10
2023-03-08T03:44:37.280Z,8.55
2023-03-08T03:46:38.840Z,9.30
2023-03-08T03:48:40.846Z,9.20
2023-03-08T03:50:42.320Z,8.63
2023-03-08T03:52:43.804Z,9.07
2023-03-08T03:54:45.232Z,9.32
2023-03-08T03:56:46.757Z,9.32
2023-03-08T03:58:48.752Z,8.88
2023-03-08T04:00:50.196Z,8.93
2023-03-08T04:02:52.116Z,8.82
2023-03-08T04:04:53.602Z,8.65
2023-03-08T04:06:55.061Z,9.13
2023-03-08T04:09:04.910Z,8.60
2023-03-08T04:11:06.410Z,8.48
2023-03-08T04:13:07.916Z,8.88
2023-03-08T04:15:09.600Z,9.27
2023-03-08T04:17:11.055Z,8.27
2023-03-08T04:19:13.772Z,11.20
2023-03-08T04:21:15.451Z,8.50
2023-03-08T04:23:16.941Z,9.88
2023-03-08T04:25:18.955Z,9.13
2023-03-08T04:27:20.455Z,8.95
2023-03-08T04:29:21.910Z,8.60
2023-03-08T04:31:29.144Z,8.68
2023-03-08T04:33:30.668Z,9.07
2023-03-08T04:35:32.125Z,8.43
2023-03-08T04:37:33.824Z,8.57
2023-03-08T04:39:35.508Z,8.40
2023-03-08T04:41:37.029Z,8.65
2023-03-08T04:43:45.359Z,8.23
2023-03-08T04:45:47.228Z,8.60
2023-03-08T04:47:48.674Z,8.88
2023-03-08T04:49:50.122Z,9.23
2023-03-08T04:51:51.582Z,9.43
2023-03-08T04:53:53.046Z,9.55
2023-03-08T04:55:54.934Z,9.00
2023-03-08T04:57:56.428Z,8.98
2023-03-08T04:59:57.930Z,9.50
2023-03-08T05:01:59.422Z,8.65
2023-03-08T05:04:00.947Z,8.93
2023-03-08T05:06:02.460Z,9.40
2023-03-08T05:08:05.202Z,8.90
2023-03-08T05:10:06.959Z,9.77
2023-03-08T05:12:08.791Z,9.43
2023-03-08T05:14:10.329Z,9.75
2023-03-08T05:16:12.137Z,9.25
2023-03-08T05:18:13.671Z,9.35
2023-03-08T05:20:15.247Z,9.77
2023-03-08T05:22:16.733Z,10.02
2023-03-08T05:24:18.326Z,9.85
2023-03-08T05:26:19.878Z,9.85
2023-03-08T05:28:23.544Z,10.50
2023-03-08T05:30:25.124Z,10.20
2023-03-08T05:32:26.854Z,10.20
2023-03-08T05:34:29.133Z,10.48
2023-03-08T05:36:30.618Z,11.07
2023-03-08T05:38:32.318Z,10.45
2023-03-08T05:40:33.809Z,10.23
2023-03-08T05:42:35.398Z,10.02
2023-03-08T05:44:37.678Z,10.50
2023-03-08T05:46:39.267Z,10.05
2023-03-08T05:48:40.845Z,11.00
2023-03-08T05:50:42.302Z,10.20
2023-03-08T05:52:43.776Z,10.77
2023-03-08T05:54:45.246Z,10.05
2023-03-08T05:56:46.780Z,10.77
2023-03-08T05:58:48.569Z,10.07
2023-03-08T06:00:50.080Z,10.45
2023-03-08T06:02:51.630Z,11.02
2023-03-08T06:04:53.138Z,9.98
2023-03-08T06:06:54.659Z,10.68
2023-03-08T06:08:56.420Z,10.15
2023-03-08T06:10:57.924Z,11.10
2023-03-08T06:12:59.376Z,10.50
2023-03-08T06:15:00.906Z,10.43
2023-03-08T06:17:02.445Z,11.18
2023-03-08T06:19:04.214Z,11.43
2023-03-08T06:21:08.512Z,11.25
2023-03-08T06:23:09.969Z,11.45
2023-03-08T06:25:11.462Z,11.45
2023-03-08T06:27:12.909Z,10.80
2023-03-08T06:29:14.386Z,11.80
2023-03-08T06:31:19.483Z,11.25
2023-03-08T06:33:23.622Z,12.55
2023-03-08T06:35:25.922Z,11.25
2023-03-08T06:37:27.410Z,11.52
2023-03-08T06:39:30.972Z,11.00
2023-03-08T06:41:32.853Z,12.40
2023-03-08T06:43:35.687Z,11.93
2023-03-08T06:45:40.945Z,12.13
2023-03-08T06:47:42.459Z,12.13
2023-03-08T06:49:44.686Z,12.10
2023-03-08T06:51:47.533Z,11.63
2023-03-08T06:53:49.000Z,11.88
2023-03-08T06:55:50.486Z,12.15
2023-03-08T06:57:52.052Z,11.82
2023-03-08T06:59:53.540Z,11.65
2023-03-08T07:01:54.992Z,11.52
2023-03-08T07:03:57.104Z,11.73
2023-03-08T07:06:00.477Z,11.20
2023-03-08T07:08:02.022Z,11.27
2023-03-08T07:10:04.384Z,11.40
2023-03-08T07:12:08.127Z,11.52
2023-03-08T07:14:09.793Z,11.80
2023-03-08T07:16:13.510Z,11.52
2023-03-08T07:18:16.079Z,12.13
2023-03-08T07:20:20.217Z,10.85
2023-03-08T07:22:21.779Z,11.05
2023-03-08T07:24:23.341Z,11.27
2023-03-08T07:26:24.801Z,11.48
2023-03-08T07:28:26.331Z,11.20
2023-03-08T07:30:27.857Z,12.60
2023-03-08T07:32:29.466Z,11.60
2023-03-08T07:34:31.082Z,12.00
2023-03-08T07:36:33.257Z,11.40
2023-03-08T07:38:34.753Z,11.80
2023-03-08T07:40:36.227Z,12.02
2023-03-08T07:42:37.728Z,11.13
2023-03-08T07:44:39.211Z,11.55
2023-03-08T07:46:40.687Z,11.70
2023-03-08T07:48:42.253Z,11.55
2023-03-08T07:50:43.825Z,11.73
2023-03-08T07:52:45.338Z,12.40
2023-03-08T07:54:46.858Z,12.60
2023-03-08T07:56:48.294Z,12.55
2023-03-08T07:58:49.878Z,12.60
2023-03-08T08:00:51.450Z,13.05
2023-03-08T08:02:54.120Z,12.52
2023-03-08T08:04:55.717Z,12.68
2023-03-08T08:06:59.250Z,12.80
2023-03-08T08:09:00.716Z,12.50
2023-03-08T08:11:09.473Z,12.85
2023-03-08T08:13:11.364Z,12.65
2023-03-08T08:15:13.001Z,12.52
2023-03-08T08:17:14.457Z,12.18
2023-03-08T08:19:17.135Z,11.30
2023-03-08T08:21:19.082Z,11.98
2023-03-08T08:23:20.522Z,12.20
2023-03-08T08:25:22.240Z,11.70
2023-03-08T08:27:23.690Z,12.95
2023-03-08T08:29:25.264Z,13.43
2023-03-08T08:31:31.232Z,13.23
2023-03-08T08:33:33.394Z,12.77
2023-03-08T08:35:43.098Z,12.43
2023-03-08T08:37:45.006Z,12.57
2023-03-08T08:39:46.446Z,12.30
2023-03-08T08:41:49.683Z,12.20
2023-03-08T08:43:51.211Z,12.20
2023-03-08T08:45:55.784Z,11.77
2023-03-08T08:47:57.269Z,13.05
2023-03-08T08:49:58.781Z,11.77
2023-03-08T08:52:00.240Z,10.88
2023-03-08T08:54:01.810Z,11.23
2023-03-08T08:56:28.365Z,10.70
2023-03-08T08:58:30.158Z,11.43
2023-03-08T09:00:33.533Z,11.27
2023-03-08T09:02:35.115Z,10.88
2023-03-08T09:04:36.758Z,10.75
2023-03-08T09:06:38.468Z,10.60
2023-03-08T09:08:40.288Z,11.43
2023-03-08T09:10:42.278Z,9.40
2023-03-08T09:12:43.810Z,10.07
2023-03-08T09:14:45.326Z,11.32
2023-03-08T09:16:46.987Z,10.68
2023-03-08T09:18:48.885Z,10.27
2023-03-08T09:20:50.472Z,10.18
2023-03-08T09:22:52.036Z,10.40
2023-03-08T09:24:53.583Z,9.45
2023-03-08T09:26:55.116Z,9.80
2023-03-08T09:28:58.733Z,9.68
2023-03-08T09:31:00.562Z,10.48
2023-03-08T09:33:02.533Z,10.07
2023-03-08T09:35:05.255Z,10.25
2023-03-08T09:37:08.242Z,9.88
2023-03-08T09:39:13.108Z,10.90
2023-03-08T09:41:25.743Z,10.48
2023-03-08T09:43:44.585Z,10.40
2023-03-08T09:45:46.276Z,10.25
2023-03-08T09:47:54.114Z,10.80
2023-03-08T09:50:04.408Z,11.77
2023-03-08T09:52:22.432Z,10.02
2023-03-08T09:54:25.142Z,9.68
2023-03-08T09:56:38.399Z,10.13
2023-03-08T09:59:25.278Z,9.48
2023-03-08T10:01:35.667Z,9.55
2023-03-08T10:03:52.422Z,9.55
2023-03-08T10:05:59.109Z,8.52
2023-03-08T10:08:13.633Z,9.60
2023-03-08T10:10:18.142Z,8.57
2023-03-08T10:12:52.365Z,8.93
2023-03-08T10:15:01.494Z,8.18
2023-03-08T10:17:12.119Z,8.57
2023-03-08T10:19:27.502Z,8.32
2023-03-08T10:21:32.814Z,8.13
2023-03-08T10:23:36.532Z,8.90
2023-03-08T10:25:39.040Z,8.40
2023-03-08T10:27:40.596Z,8.45
2023-03-08T10:29:49.054Z,8.45
2023-03-08T10:31:50.529Z,9.48
2023-03-08T10:34:11.233Z,8.55
2023-03-08T10:36:24.126Z,7.68
2023-03-08T10:38:30.593Z,8.50
2023-03-08T10:40:32.181Z,7.65
2023-03-08T10:42:35.432Z,7.70
2023-03-08T10:44:55.850Z,7.70
2023-03-08T10:46:57.540Z,7.57
2023-03-08T10:49:14.668Z,7.45
2023-03-08T10:51:23.047Z,7.78
2023-03-08T10:53:24.568Z,7.45
2023-03-08T10:55:30.151Z,7.07
2023-03-08T10:57:32.831Z,7.32
2023-03-08T10:59:36.464Z,6.65
2023-03-08T11:01:52.448Z,6.97
2023-03-08T11:04:00.200Z,6.97
2023-03-08T11:06:23.322Z,6.97
2023-03-08T11:08:36.737Z,6.63
2023-03-08T11:10:38.254Z,7.05
2023-03-08T11:12:40.320Z,6.55
2023-03-08T11:14:41.902Z,7.40
2023-03-08T11:17:04.612Z,6.97
2023-03-08T11:19:32.842Z,6.75
2023-03-08T11:22:02.314Z,6.55
2023-03-08T11:24:09.484Z,10.27
2023-03-08T11:26:22.570Z,8.50
2023-03-08T11:28:35.608Z,8.00
2023-03-08T11:31:15.083Z,6.88
2023-03-08T11:33:46.064Z,6.75
2023-03-08T11:36:13.249Z,5.85
2023-03-08T11:38:17.511Z,6.32
2023-03-08T11:40:25.155Z,6.50
2023-03-08T11:42:59.130Z,6.35
2023-03-08T11:45:19.329Z,5.60
2023-03-08T11:47:51.508Z,6.50
2023-03-08T11:50:10.940Z,6.30
2023-03-08T11:52:28.653Z,6.40
2023-03-08T11:54:51.839Z,6.83
2023-03-08T11:57:04.118Z,6.13
2023-03-08T11:59:33.884Z,6.40
2023-03-08T12:02:02.691Z,6.50
2023-03-08T12:04:11.559Z,6.88
2023-03-08T12:08:44.031Z,7.22
2023-03-08T12:10:56.491Z,7.28
2023-03-08T12:13:04.945Z,7.35
2023-03-08T12:15:41.219Z,6.32
2023-03-08T12:17:50.418Z,6.97
2023-03-08T12:19:52.199Z,6.97
2023-03-08T12:22:08.942Z,6.30
2023-03-08T12:24:44.218Z,5.93
2023-03-08T12:26:51.377Z,6.40
2023-03-08T12:29:02.183Z,5.88
2023-03-08T12:31:11.015Z,5.72
2023-03-08T12:33:20.269Z,5.22
2023-03-08T12:35:27.505Z,5.10
2023-03-08T12:37:30.367Z,5.03
2023-03-08T12:39:36.719Z,5.18
2023-03-08T12:41:38.579Z,5.03
2023-03-08T12:43:40.573Z,4.70
2023-03-08T12:45:45.160Z,4.47
2023-03-08T12:48:06.867Z,4.75
2023-03-08T12:50:18.361Z,7.13
2023-03-08T12:52:19.911Z,4.70
2023-03-08T12:54:23.702Z,4.40
2023-03-08T12:56:31.235Z,4.72
2023-03-08T12:58:34.875Z,5.03
2023-03-08T13:00:38.378Z,4.60
2023-03-08T13:02:39.861Z,4.57
2023-03-08T13:04:42.715Z,4.43
2023-03-08T13:07:00.533Z,3.58
2023-03-08T13:09:16.292Z,4.75
2023-03-08T13:11:18.119Z,4.07
2023-03-08T13:13:39.560Z,4.68
2023-03-08T13:15:41.217Z,4.38
2023-03-08T13:17:50.559Z,4.03
2023-03-08T13:19:52.334Z,4.10
2023-03-08T13:22:03.578Z,3.72
2023-03-08T13:24:17.891Z,3.85
2023-03-08T13:26:57.542Z,3.53
2023-03-08T13:28:59.254Z,5.30
2023-03-08T13:31:25.034Z,4.85
2023-03-08T13:33:33.370Z,5.90
2023-03-08T13:35:35.055Z,4.82
2023-03-08T13:37:36.641Z,5.55
2023-03-08T13:39:38.145Z,5.97
2023-03-08T13:41:41.749Z,6.47
2023-03-08T13:43:43.209Z,6.13
2023-03-08T13:45:48.969Z,6.20
2023-03-08T13:47:51.599Z,5.80
2023-03-08T13:49:55.672Z,5.75
2023-03-08T13:52:02.305Z,9.75
2023-03-08T13:54:04.043Z,6.18
2023-03-08T13:56:06.577Z,6.72
2023-03-08T13:58:24.573Z,6.35
2023-03-08T14:00:26.267Z,6.60
2023-03-08T14:02:30.653Z,5.60
2023-03-08T14:04:34.838Z,5.35
2023-03-08T14:06:38.106Z,5.35
2023-03-08T14:08:39.633Z,5.38
2023-03-08T14:10:45.384Z,4.18
2023-03-08T14:12:46.905Z,4.40
2023-03-08T14:14:55.382Z,3.50
2023-03-08T14:16:57.690Z,5.43
2023-03-08T14:19:08.332Z,3.90
2023-03-08T14:21:39.096Z,4.13
2023-03-08T14:23:43.212Z,4.20
2023-03-08T14:25:44.716Z,3.70
2023-03-08T14:27:46.236Z,2.67
2023-03-08T14:29:48.332Z,2.75
2023-03-08T14:31:52.722Z,2.85
2023-03-08T14:34:05.206Z,2.72
2023-03-08T14:36:09.722Z,3.58
2023-03-08T14:38:23.439Z,3.33
2023-03-08T14:40:26.599Z,3.33
2023-03-08T14:42:55.730Z,3.00
2023-03-08T14:45:05.603Z,3.05
2023-03-08T14:47:21.518Z,3.15
2023-03-08T14:49:23.860Z,3.00
2023-03-08T14:51:41.059Z,3.30
2023-03-08T14:53:43.034Z,2.85
2023-03-08T14:55:44.730Z,2.80
2023-03-08T14:57:46.292Z,2.33
2023-03-08T14:59:48.882Z,2.45
2023-03-08T15:01:50.468Z,2.13
2023-03-08T15:03:52.051Z,2.13
2023-03-08T15:05:55.427Z,2.20
2023-03-08T15:08:00.441Z,2.13
2023-03-08T15:10:04.460Z,1.90
2023-03-08T15:12:09.285Z,3.30
2023-03-08T15:14:14.278Z,2.13
2023-03-08T15:16:15.847Z,2.03
2023-03-08T15:18:17.422Z,2.53
2023-03-08T15:20:19.546Z,2.78
2023-03-08T15:22:21.372Z,2.50
2023-03-08T15:24:23.188Z,3.28
2023-03-08T15:26:28.745Z,4.47
2023-03-08T15:28:30.208Z,3.20
2023-03-08T15:30:33.003Z,2.58
2023-03-08T15:32:34.844Z,2.30
2023-03-08T15:34:36.398Z,2.38
2023-03-08T15:36:37.960Z,2.42
2023-03-08T15:38:39.419Z,2.28
2023-03-08T15:40:41.857Z,1.98
2023-03-08T15:42:43.591Z,2.30
2023-03-08T15:44:45.043Z,2.38
2023-03-08T15:46:46.651Z,2.63
2023-03-08T15:48:50.995Z,2.53
2023-03-08T15:50:52.542Z,2.33
2023-03-08T15:52:54.593Z,2.83
2023-03-08T15:54:56.110Z,2.50
2023-03-08T15:56:58.450Z,2.25
2023-03-08T15:59:00.123Z,2.53
2023-03-08T16:01:01.625Z,2.70
2023-03-08T16:03:03.161Z,2.80
2023-03-08T16:05:09.486Z,3.03
2023-03-08T16:07:16.433Z,2.70
2023-03-08T16:09:17.902Z,2.85
2023-03-08T16:11:23.034Z,2.90
2023-03-08T16:13:24.583Z,2.78
2023-03-08T16:15:26.255Z,2.28
2023-03-08T16:17:30.541Z,2.60
2023-03-08T16:19:33.815Z,2.40
2023-03-08T16:21:35.279Z,2.88
2023-03-08T16:23:38.960Z,3.00
2023-03-08T16:25:43.193Z,3.10
2023-03-08T16:27:44.870Z,3.15
2023-03-08T16:29:50.963Z,3.58
2023-03-08T16:31:52.963Z,3.22
2023-03-08T16:33:54.422Z,3.42
2023-03-08T16:35:56.020Z,3.28
2023-03-08T16:37:57.596Z,3.58
2023-03-08T16:40:02.047Z,3.33
2023-03-08T16:42:03.687Z,3.58
2023-03-08T16:44:07.026Z,3.47
2023-03-08T16:46:14.163Z,3.75
2023-03-08T16:48:15.621Z,2.95
2023-03-08T16:50:17.325Z,2.80
2023-03-08T16:52:19.293Z,3.28
2023-03-08T16:54:20.839Z,3.20
2023-03-08T16:56:25.228Z,3.50
2023-03-08T16:58:26.694Z,3.50
2023-03-08T17:00:28.183Z,3.70
2023-03-08T17:02:29.729Z,3.20
2023-03-08T17:04:31.234Z,3.47
2023-03-08T17:06:33.235Z,3.70
2023-03-08T17:08:34.870Z,3.70
2023-03-08T17:10:40.674Z,3.70
2023-03-08T17:12:42.189Z,3.70
2023-03-08T17:14:44.618Z,4.18
2023-03-08T17:16:46.140Z,4.18
2023-03-08T17:18:49.239Z,3.80
2023-03-08T17:20:52.213Z,4.90
2023-03-08T17:22:53.665Z,5.25
2023-03-08T17:24:55.205Z,5.03
2023-03-08T17:26:56.734Z,5.20
2023-03-08T17:28:58.197Z,4.45
2023-03-08T17:30:59.717Z,4.18
2023-03-08T17:33:01.188Z,4.60
2023-03-08T17:35:02.681Z,4.53
2023-03-08T17:37:04.496Z,3.63
2023-03-08T17:39:06.131Z,4.40
2023-03-08T17:41:10.967Z,5.10
2023-03-08T17:43:12.425Z,5.22
2023-03-08T17:45:15.952Z,4.97
2023-03-08T17:47:17.420Z,5.68
2023-03-08T17:49:23.296Z,5.38
2023-03-08T17:51:27.900Z,5.18
2023-03-08T17:53:29.735Z,4.15
2023-03-08T17:55:31.233Z,4.40
2023-03-08T17:57:32.694Z,5.10
2023-03-08T17:59:34.160Z,6.00
2023-03-08T18:01:35.650Z,5.65
2023-03-08T18:03:37.745Z,7.13
2023-03-08T18:05:48.690Z,7.70
2023-03-08T18:07:50.202Z,7.00
2023-03-08T18:09:51.726Z,8.50
2023-03-08T18:11:53.180Z,8.07
2023-03-08T18:13:55.145Z,8.70
2023-03-08T18:15:56.826Z,7.75
2023-03-08T18:17:58.435Z,8.35
2023-03-08T18:20:01.047Z,8.07
2023-03-08T18:22:04.463Z,7.82
2023-03-08T18:24:06.254Z,7.63
2023-03-08T18:26:07.703Z,7.10
2023-03-08T18:28:09.404Z,7.53
2023-03-08T18:30:11.923Z,7.25
2023-03-08T18:32:13.417Z,7.57
2023-03-08T18:34:15.417Z,7.40
2023-03-08T18:36:18.049Z,7.53
2023-03-08T18:38:19.518Z,7.13
2023-03-08T18:40:21.071Z,6.65
2023-03-08T18:42:22.592Z,6.22
2023-03-08T18:44:24.712Z,6.82
2023-03-08T18:46:28.889Z,6.65
2023-03-08T18:48:30.537Z,6.70
2023-03-08T18:50:32.525Z,6.88
2023-03-08T18:52:34.184Z,6.68
2023-03-08T18:54:35.902Z,6.70
2023-03-08T18:56:37.466Z,6.78
2023-03-08T18:58:38.964Z,6.50
2023-03-08T19:00:40.489Z,6.15
2023-03-08T19:02:42.026Z,6.25
2023-03-08T19:04:43.535Z,6.68
2023-03-08T19:06:45.141Z,6.60
2023-03-08T19:08:46.641Z,6.47
2023-03-08T19:10:48.200Z,6.55
2023-03-08T19:12:49.723Z,6.40
2023-03-08T19:14:52.924Z,6.35
2023-03-08T19:16:54.738Z,6.75
2023-03-08T19:18:59.040Z,6.43
2023-03-08T19:21:00.563Z,6.88
2023-03-08T19:23:02.072Z,7.15
2023-03-08T19:25:05.871Z,6.93
2023-03-08T19:27:07.457Z,6.97
2023-03-08T19:29:23.775Z,6.88
2023-03-08T19:31:25.305Z,7.20
2023-03-08T19:33:31.596Z,7.40
2023-03-08T19:35:34.332Z,6.55
2023-03-08T19:37:35.954Z,6.70
2023-03-08T19:39:38.377Z,7.00
2023-03-08T19:41:40.391Z,7.07
2023-03-08T19:43:42.719Z,6.38
2023-03-08T19:45:50.496Z,6.25
2023-03-08T19:47:52.616Z,6.80
2023-03-08T19:49:54.097Z,6.55
2023-03-08T19:51:57.336Z,6.53
2023-03-08T19:53:58.910Z,6.85
2023-03-08T19:56:00.393Z,6.72
2023-03-08T19:58:01.842Z,6.85
2023-03-08T20:00:06.174Z,7.63
2023-03-08T20:02:08.913Z,6.32
2023-03-08T20:04:11.497Z,6.68
2023-03-08T20:06:20.466Z,7.07
2023-03-08T20:08:21.989Z,7.50
2023-03-08T20:10:23.534Z,6.82
2023-03-08T20:12:25.006Z,6.88
2023-03-08T20:14:27.197Z,8.02
2023-03-08T20:16:29.686Z,7.50
2023-03-08T20:18:31.377Z,7.18
2023-03-08T20:20:33.153Z,7.50
2023-03-08T20:22:34.686Z,7.30
2023-03-08T20:24:36.222Z,7.40
2023-03-08T20:26:38.006Z,7.03
2023-03-08T20:28:39.772Z,7.22
2023-03-08T20:30:41.420Z,8.00
2023-03-08T20:32:43.195Z,8.15
2023-03-08T20:34:44.697Z,7.07
2023-03-08T20:36:47.409Z,7.15
2023-03-08T20:38:49.232Z,7.60
2023-03-08T20:41:01.939Z,7.10
2023-03-08T20:43:03.420Z,6.75
2023-03-08T20:45:05.717Z,7.18
2023-03-08T20:47:07.432Z,6.75
2023-03-08T20:49:11.134Z,6.60
2023-03-08T20:51:17.606Z,7.05
2023-03-08T20:53:19.075Z,6.43
2023-03-08T20:55:20.905Z,5.88
2023-03-08T20:57:22.932Z,6.40
2023-03-08T20:59:26.914Z,6.20
2023-03-08T21:01:31.416Z,5.90
2023-03-08T21:03:32.938Z,5.90
2023-03-08T21:05:35.934Z,5.47
2023-03-08T21:07:37.420Z,5.65
2023-03-08T21:09:38.892Z,6.13
2023-03-08T21:11:40.743Z,6.03
2023-03-08T21:13:42.956Z,5.85
2023-03-08T21:15:44.572Z,5.93
2023-03-08T21:17:46.068Z,6.03
2023-03-08T21:19:50.944Z,6.18
2023-03-08T21:21:52.583Z,5.72
2023-03-08T21:23:59.489Z,6.50
2023-03-08T21:26:01.297Z,5.97
2023-03-08T21:28:02.875Z,6.47
2023-03-08T21:30:06.122Z,6.07
2023-03-08T21:32:07.656Z,6.53
2023-03-08T21:34:09.327Z,6.75
2023-03-08T21:36:11.156Z,6.47
2023-03-08T21:38:12.654Z,6.47
2023-03-08T21:40:14.538Z,6.53
2023-03-08T21:42:16.018Z,6.70
2023-03-08T21:44:19.789Z,6.75
2023-03-08T21:46:21.423Z,6.70
2023-03-08T21:48:22.913Z,6.70
2023-03-08T21:50:24.395Z,6.55
2023-03-08T21:52:25.919Z,7.50
2023-03-08T21:54:29.852Z,6.82
2023-03-08T21:56:31.416Z,7.55
2023-03-08T21:58:32.888Z,7.85
2023-03-08T22:00:34.834Z,6.45
2023-03-08T22:02:36.485Z,6.78
2023-03-08T22:04:39.026Z,7.72
2023-03-08T22:06:40.814Z,7.60
2023-03-08T22:08:42.311Z,7.13
2023-03-08T22:10:43.764Z,6.43
2023-03-08T22:12:47.284Z,6.38
2023-03-08T22:14:48.824Z,5.90
2023-03-08T22:16:50.322Z,7.07
2023-03-08T22:18:56.773Z,7.55
2023-03-08T22:20:59.072Z,7.05
2023-03-08T22:23:01.444Z,7.78
2023-03-08T22:25:03.621Z,7.60
2023-03-08T22:27:05.378Z,7.43
2023-03-08T22:29:06.872Z,7.25
2023-03-08T22:31:13.853Z,7.55
2023-03-08T22:33:15.829Z,7.22
2023-03-08T22:35:17.923Z,7.75
2023-03-08T22:37:19.497Z,7.75
2023-03-08T22:39:20.972Z,7.45
2023-03-08T22:41:24.902Z,8.90
2023-03-08T22:43:27.088Z,7.80
2023-03-08T22:45:29.657Z,7.53
2023-03-08T22:47:31.487Z,7.45
2023-03-08T22:49:34.328Z,7.32
2023-03-08T22:51:36.441Z,7.47
2023-03-08T22:53:38.592Z,7.28
2023-03-08T22:55:46.606Z,8.23
2023-03-08T22:57:48.277Z,7.75
2023-03-08T22:59:49.748Z,7.10
2023-03-08T23:01:52.463Z,8.25
2023-03-08T23:03:57.081Z,7.55
2023-03-08T23:05:58.608Z,7.80
2023-03-08T23:08:00.123Z,7.70
2023-03-08T23:10:01.557Z,7.93
2023-03-08T23:12:04.894Z,7.95
2023-03-08T23:14:08.002Z,8.18
2023-03-08T23:16:13.725Z,7.53
2023-03-08T23:18:15.245Z,8.45
2023-03-08T23:20:19.888Z,7.65
2023-03-08T23:22:21.442Z,7.93
2023-03-08T23:24:22.930Z,8.20
2023-03-08T23:26:27.159Z,8.35
2023-03-08T23:28:28.604Z,8.10
2023-03-08T23:30:30.093Z,8.65
2023-03-08T23:32:31.838Z,8.02
2023-03-08T23:34:33.623Z,7.82
2023-03-08T23:36:35.152Z,9.32
2023-03-08T23:38:36.604Z,8.30
2023-03-08T23:40:39.848Z,8.20
2023-03-08T23:42:41.698Z,8.00
2023-03-08T23:44:43.154Z,8.23
2023-03-08T23:46:46.299Z,8.82
2023-03-08T23:48:48.643Z,9.00
2023-03-08T23:50:50.112Z,9.48
2023-03-08T23:52:51.590Z,8.23
2023-03-08T23:54:53.576Z,9.15
2023-03-08T23:56:55.031Z,8.30
2023-03-08T23:58:58.392Z,8.70
